createdAt,value
2017-02-26T00:01:12.329Z,95.69
2017-02-26T00:02:26.725Z,95.4
2017-02-26T00:03:40.520Z,96.17
2017-02-26T00:04:54.960Z,95.02
2017-02-26T00:06:08.727Z,95.31
2017-02-26T00:07:21.839Z,95.02
2017-02-26T00:08:36.251Z,94.24
2017-02-26T00:09:50.637Z,95.02
2017-02-26T00:11:05.040Z,95.11
2017-02-26T00:12:18.799Z,94.54
2017-02-26T00:13:33.245Z,95.21
2017-02-26T00:14:47.615Z,95.4
2017-02-26T00:16:02.005Z,94.73
2017-02-26T00:17:16.414Z,94.24
2017-02-26T00:18:30.838Z,93.96
2017-02-26T00:19:45.211Z,94.24
2017-02-26T00:20:59.609Z,94.24
2017-02-26T00:22:14.026Z,94.06
2017-02-26T00:23:27.815Z,94.73
2017-02-26T00:24:40.925Z,94.06
2017-02-26T00:25:55.364Z,93.86
2017-02-26T00:27:09.758Z,94.06
2017-02-26T00:28:24.182Z,94.34
2017-02-26T00:29:38.573Z,93.57
2017-02-26T00:30:52.993Z,94.44
2017-02-26T00:32:06.732Z,94.34
2017-02-26T00:33:20.467Z,94.15
2017-02-26T00:34:34.860Z,93.96
2017-02-26T00:35:48.595Z,93.96
2017-02-26T00:37:02.989Z,93.96
2017-02-26T00:38:17.438Z,94.06
2017-02-26T00:39:31.881Z,93.96
2017-02-26T00:40:45.647Z,94.34
2017-02-26T00:42:00.043Z,94.24
2017-02-26T00:43:14.458Z,94.15
2017-02-26T00:44:28.872Z,94.63
2017-02-26T00:45:42.628Z,94.34
2017-02-26T00:46:57.042Z,94.44
2017-02-26T00:48:11.482Z,94.34
2017-02-26T00:49:25.298Z,94.06
2017-02-26T00:50:39.112Z,94.24
2017-02-26T00:51:53.494Z,94.73
2017-02-26T00:53:07.900Z,95.21
2017-02-26T00:54:22.258Z,94.34
2017-02-26T00:55:35.378Z,94.82
2017-02-26T00:56:49.176Z,96.27
2017-02-26T00:58:03.568Z,96.17
2017-02-26T00:59:17.946Z,95.11
2017-02-26T01:00:31.687Z,95.69
2017-02-26T01:01:46.087Z,95.4
2017-02-26T01:03:00.468Z,95.4
2017-02-26T01:04:14.856Z,94.82
2017-02-26T01:05:29.261Z,95.11
2017-02-26T01:06:43.000Z,94.92
2017-02-26T01:07:57.398Z,94.06
2017-02-26T01:09:11.103Z,94.24
2017-02-26T01:10:24.855Z,94.06
2017-02-26T01:11:39.278Z,94.24
2017-02-26T01:12:53.029Z,94.06
2017-02-26T01:14:07.432Z,93.76
2017-02-26T01:15:21.840Z,94.24
2017-02-26T01:16:35.578Z,94.06
2017-02-26T01:17:48.665Z,94.34
2017-02-26T01:19:02.418Z,94.06
2017-02-26T01:20:16.175Z,94.15
2017-02-26T01:21:29.309Z,94.15
2017-02-26T01:22:42.420Z,94.92
2017-02-26T01:23:56.168Z,95.11
2017-02-26T01:25:10.570Z,95.4
2017-02-26T01:26:24.973Z,95.69
2017-02-26T01:27:39.363Z,95.89
2017-02-26T01:28:53.105Z,95.59
2017-02-26T01:30:07.519Z,96.75
2017-02-26T01:31:21.949Z,96.66
2017-02-26T01:32:35.045Z,96.66
2017-02-26T01:33:49.422Z,96.37
2017-02-26T01:35:03.860Z,97.14
2017-02-26T01:36:18.282Z,97.81
2017-02-26T01:37:32.718Z,98.2
2017-02-26T01:38:47.110Z,98.15
2017-02-26T01:40:01.506Z,97.96
2017-02-26T01:41:15.870Z,97.96
2017-02-26T01:42:30.267Z,97.76
2017-02-26T01:43:44.672Z,98.15
2017-02-26T01:44:59.057Z,98.54
2017-02-26T01:46:13.468Z,98.05
2017-02-26T01:47:27.840Z,97.96
2017-02-26T01:48:42.215Z,97.76
2017-02-26T01:49:56.621Z,97.76
2017-02-26T01:51:11.028Z,97.86
2017-02-26T01:52:25.400Z,98.05
2017-02-26T01:53:38.511Z,97.96
2017-02-26T01:54:52.939Z,98.05
2017-02-26T01:56:07.301Z,97.86
2017-02-26T01:57:21.795Z,98.82
2017-02-26T01:58:35.568Z,98.15
2017-02-26T01:59:49.959Z,98.15
2017-02-26T02:01:04.330Z,98.15
2017-02-26T02:02:18.731Z,97.67
2017-02-26T02:03:33.106Z,97.28
2017-02-26T02:04:47.465Z,97.57
2017-02-26T02:06:01.842Z,97.28
2017-02-26T02:07:16.229Z,97.47
2017-02-26T02:08:30.033Z,97.38
2017-02-26T02:09:43.786Z,98.15
2017-02-26T02:10:58.181Z,97.96
2017-02-26T02:12:11.918Z,97.76
2017-02-26T02:13:26.288Z,98.15
2017-02-26T02:14:40.663Z,97.96
2017-02-26T02:15:55.041Z,98.24
2017-02-26T02:17:09.439Z,98.34
2017-02-26T02:18:22.573Z,98.34
2017-02-26T02:19:36.300Z,98.72
2017-02-26T02:20:50.083Z,97.76
2017-02-26T02:22:04.500Z,97.96
2017-02-26T02:23:18.857Z,97.76
2017-02-26T02:24:33.243Z,98.05
2017-02-26T02:25:46.373Z,98.15
2017-02-26T02:27:00.775Z,98.54
2017-02-26T02:28:15.186Z,98.82
2017-02-26T02:29:29.572Z,98.34
2017-02-26T02:30:43.339Z,98.44
2017-02-26T02:31:57.777Z,98.44
2017-02-26T02:33:12.165Z,99.11
2017-02-26T02:34:25.926Z,99.4
2017-02-26T02:35:40.297Z,99.3
2017-02-26T02:36:53.404Z,98.72
2017-02-26T02:38:07.767Z,98.82
2017-02-26T02:39:22.192Z,98.63
2017-02-26T02:40:36.578Z,99.79
2017-02-26T02:41:50.328Z,99.5
2017-02-26T02:43:04.050Z,99.59
2017-02-26T02:44:18.463Z,99.5
2017-02-26T02:45:32.201Z,99.99
2017-02-26T02:46:46.607Z,99.79
2017-02-26T02:48:00.993Z,99.99
2017-02-26T02:49:15.415Z,99.99
2017-02-26T02:50:29.814Z,99.99
2017-02-26T02:51:44.211Z,99.99
2017-02-26T02:52:57.972Z,99.84
2017-02-26T02:54:11.710Z,99.74
2017-02-26T02:55:26.121Z,99.93
2017-02-26T02:56:40.551Z,99.99
2017-02-26T02:57:54.918Z,99.99
2017-02-26T02:59:09.323Z,99.99
2017-02-26T03:00:22.467Z,99.99
2017-02-26T03:01:36.918Z,99.99
2017-02-26T03:02:50.754Z,99.99
2017-02-26T03:04:05.130Z,99.99
2017-02-26T03:05:20.028Z,99.99
2017-02-26T03:06:33.770Z,99.99
2017-02-26T03:07:48.175Z,99.99
2017-02-26T03:09:02.612Z,99.99
2017-02-26T03:10:16.352Z,99.99
2017-02-26T03:11:30.751Z,99.99
2017-02-26T03:12:43.876Z,99.99
2017-02-26T03:13:57.627Z,99.99
2017-02-26T03:15:11.983Z,99.99
2017-02-26T03:16:26.350Z,99.99
2017-02-26T03:17:40.757Z,99.99
2017-02-26T03:18:55.089Z,99.99
2017-02-26T03:20:09.471Z,99.99
2017-02-26T03:21:23.843Z,99.99
2017-02-26T03:22:38.271Z,99.99
2017-02-26T03:23:51.672Z,99.99
2017-02-26T03:25:06.135Z,99.99
2017-02-26T03:26:20.673Z,99.99
2017-02-26T03:27:33.801Z,99.99
2017-02-26T03:28:46.911Z,99.99
2017-02-26T03:30:01.304Z,99.99
2017-02-26T03:31:16.556Z,99.99
2017-02-26T03:32:31.222Z,99.99
2017-02-26T03:33:46.354Z,99.99
2017-02-26T03:35:00.680Z,99.99
2017-02-26T03:36:15.055Z,99.99
2017-02-26T03:37:29.432Z,99.99
2017-02-26T03:38:43.176Z,99.99
2017-02-26T03:39:57.550Z,99.99
2017-02-26T03:41:11.952Z,99.99
2017-02-26T03:42:25.740Z,99.99
2017-02-26T03:43:39.509Z,99.99
2017-02-26T03:44:54.472Z,99.99
2017-02-26T03:46:08.836Z,99.99
2017-02-26T03:47:36.132Z,99.99
2017-02-26T03:48:50.156Z,99.99
2017-02-26T03:50:04.537Z,99.99
2017-02-26T03:51:18.936Z,99.99
2017-02-26T03:52:32.716Z,99.99
2017-02-26T03:53:46.458Z,99.99
2017-02-26T03:55:00.829Z,99.99
2017-02-26T03:56:15.266Z,99.99
2017-02-26T03:57:28.374Z,99.99
2017-02-26T03:58:42.165Z,99.99
2017-02-26T03:59:56.557Z,99.99
2017-02-26T04:01:11.548Z,99.99
2017-02-26T04:02:25.970Z,99.99
2017-02-26T04:03:39.736Z,99.99
2017-02-26T04:04:52.850Z,99.99
2017-02-26T04:06:07.251Z,99.99
2017-02-26T04:07:21.625Z,99.99
2017-02-26T04:08:35.357Z,99.99
2017-02-26T04:09:49.705Z,99.99
2017-02-26T04:11:23.390Z,99.99
2017-02-26T04:12:37.149Z,99.99
2017-02-26T04:13:51.517Z,99.99
2017-02-26T04:15:05.259Z,99.99
2017-02-26T04:16:19.679Z,99.99
2017-02-26T04:17:34.067Z,99.99
2017-02-26T04:18:48.470Z,99.99
2017-02-26T04:20:02.869Z,99.99
2017-02-26T04:21:16.632Z,99.99
2017-02-26T04:22:29.736Z,99.99
2017-02-26T04:23:43.492Z,99.99
2017-02-26T04:24:57.896Z,99.99
2017-02-26T04:26:12.299Z,99.99
2017-02-26T04:27:25.606Z,99.99
2017-02-26T04:28:40.038Z,99.99
2017-02-26T04:29:55.097Z,99.99
2017-02-26T04:31:09.469Z,99.99
2017-02-26T04:32:23.282Z,99.99
2017-02-26T04:33:36.446Z,99.99
2017-02-26T04:34:51.469Z,99.99
2017-02-26T04:36:06.809Z,99.99
2017-02-26T04:37:21.170Z,99.99
2017-02-26T04:38:34.619Z,99.99
2017-02-26T04:39:49.007Z,99.99
2017-02-26T04:41:03.724Z,99.99
2017-02-26T04:42:19.074Z,99.99
2017-02-26T04:43:33.496Z,99.99
2017-02-26T04:44:47.250Z,99.99
2017-02-26T04:46:01.621Z,99.99
2017-02-26T04:47:15.987Z,99.99
2017-02-26T04:48:30.438Z,99.99
2017-02-26T04:49:44.822Z,99.99
2017-02-26T04:50:57.939Z,99.99
2017-02-26T04:52:12.285Z,99.99
2017-02-26T04:53:26.709Z,99.99
2017-02-26T04:54:40.495Z,99.99
2017-02-26T04:55:54.883Z,99.99
2017-02-26T04:57:08.613Z,99.99
2017-02-26T04:58:23.010Z,99.99
2017-02-26T04:59:37.384Z,99.99
2017-02-26T05:00:51.744Z,99.99
2017-02-26T05:02:06.357Z,99.99
2017-02-26T05:03:20.829Z,99.99
2017-02-26T05:04:35.251Z,99.99
2017-02-26T05:05:48.445Z,99.99
2017-02-26T05:07:02.868Z,99.99
2017-02-26T05:08:17.566Z,99.99
2017-02-26T05:09:31.510Z,99.99
2017-02-26T05:10:45.231Z,99.99
2017-02-26T05:11:59.631Z,99.99
2017-02-26T05:13:14.008Z,99.99
2017-02-26T05:14:27.844Z,99.99
2017-02-26T05:15:41.578Z,99.99
2017-02-26T05:16:55.966Z,99.99
2017-02-26T05:18:09.698Z,99.99
2017-02-26T05:19:24.132Z,99.99
2017-02-26T05:20:37.858Z,99.99
2017-02-26T05:21:52.229Z,99.99
2017-02-26T05:23:06.687Z,99.99
2017-02-26T05:24:21.086Z,99.99
2017-02-26T05:25:35.475Z,99.99
2017-02-26T05:26:49.246Z,99.99
2017-02-26T05:28:03.648Z,99.99
2017-02-26T05:29:18.030Z,99.99
2017-02-26T05:30:31.846Z,99.99
2017-02-26T05:31:46.378Z,99.99
2017-02-26T05:33:00.776Z,99.99
2017-02-26T05:34:15.223Z,99.99
2017-02-26T05:35:28.973Z,99.99
2017-02-26T05:36:43.389Z,99.99
2017-02-26T05:37:57.816Z,99.99
2017-02-26T05:39:12.216Z,99.99
2017-02-26T05:40:25.976Z,99.99
2017-02-26T05:41:40.375Z,99.99
2017-02-26T05:42:54.736Z,99.99
2017-02-26T05:44:08.479Z,99.99
2017-02-26T05:45:22.889Z,99.99
2017-02-26T05:46:37.288Z,99.99
2017-02-26T05:47:51.657Z,99.99
2017-02-26T05:49:06.031Z,99.99
2017-02-26T05:50:19.764Z,99.99
2017-02-26T05:51:34.145Z,99.99
2017-02-26T05:52:48.590Z,99.99
2017-02-26T05:54:02.977Z,99.99
2017-02-26T05:55:17.402Z,99.99
2017-02-26T05:56:31.804Z,99.99
2017-02-26T05:57:45.559Z,99.99
2017-02-26T05:58:59.961Z,99.99
2017-02-26T06:00:14.354Z,99.99
2017-02-26T06:01:28.711Z,99.99
2017-02-26T06:02:42.402Z,99.99
2017-02-26T06:03:56.818Z,99.99
2017-02-26T06:05:11.169Z,99.99
2017-02-26T06:06:25.548Z,99.99
2017-02-26T06:07:39.946Z,99.99
2017-02-26T06:08:54.314Z,99.99
2017-02-26T06:10:08.060Z,99.99
2017-02-26T06:11:22.466Z,99.99
2017-02-26T06:12:36.858Z,99.99
2017-02-26T06:13:49.999Z,99.99
2017-02-26T06:15:04.388Z,99.99
2017-02-26T06:16:18.788Z,99.99
2017-02-26T06:17:33.162Z,99.99
2017-02-26T06:18:47.584Z,99.99
2017-02-26T06:20:02.012Z,99.99
2017-02-26T06:21:16.403Z,99.99
2017-02-26T06:22:30.827Z,99.99
2017-02-26T06:23:44.545Z,99.99
2017-02-26T06:24:58.977Z,99.99
2017-02-26T06:26:13.402Z,99.99
2017-02-26T06:27:27.825Z,99.99
2017-02-26T06:28:41.556Z,99.99
2017-02-26T06:29:55.990Z,99.99
2017-02-26T06:31:10.404Z,99.99
2017-02-26T06:32:24.791Z,99.99
2017-02-26T06:33:38.528Z,99.99
2017-02-26T06:34:52.945Z,99.99
2017-02-26T06:36:07.343Z,99.99
2017-02-26T06:37:21.089Z,99.99
2017-02-26T06:38:34.901Z,99.99
2017-02-26T06:39:48.736Z,99.99
2017-02-26T06:41:03.091Z,99.99
2017-02-26T06:42:17.479Z,99.99
2017-02-26T06:43:31.906Z,99.99
2017-02-26T06:44:45.010Z,99.99
2017-02-26T06:45:59.400Z,99.99
2017-02-26T06:47:13.826Z,99.99
2017-02-26T06:48:28.190Z,99.99
2017-02-26T06:49:42.576Z,99.99
2017-02-26T06:50:56.975Z,99.99
2017-02-26T06:52:10.714Z,99.99
2017-02-26T06:53:24.456Z,99.99
2017-02-26T06:54:38.847Z,99.99
2017-02-26T06:55:52.549Z,99.99
2017-02-26T06:57:06.306Z,99.99
2017-02-26T06:58:20.067Z,99.99
2017-02-26T06:59:33.148Z,99.99
2017-02-26T07:00:46.262Z,99.99
2017-02-26T07:02:00.636Z,99.99
2017-02-26T07:03:15.031Z,99.99
2017-02-26T07:04:29.373Z,99.99
2017-02-26T07:05:43.743Z,99.99
2017-02-26T07:06:58.166Z,99.99
2017-02-26T07:08:12.576Z,99.99
2017-02-26T07:09:26.949Z,99.99
2017-02-26T07:10:41.313Z,99.99
2017-02-26T07:11:55.701Z,99.99
2017-02-26T07:13:09.478Z,99.99
2017-02-26T07:14:23.883Z,99.99
2017-02-26T07:15:37.649Z,99.99
2017-02-26T07:16:52.036Z,99.99
2017-02-26T07:18:05.803Z,99.99
2017-02-26T07:19:19.578Z,99.99
2017-02-26T07:20:33.953Z,99.99
2017-02-26T07:21:48.368Z,99.99
2017-02-26T07:23:02.736Z,99.99
2017-02-26T07:24:17.124Z,99.99
2017-02-26T07:25:31.503Z,99.99
2017-02-26T07:26:45.923Z,99.99
2017-02-26T07:28:00.300Z,99.99
2017-02-26T07:29:14.035Z,99.99
2017-02-26T07:30:28.441Z,99.99
2017-02-26T07:31:42.810Z,99.99
2017-02-26T07:32:56.554Z,99.99
2017-02-26T07:34:10.308Z,99.99
2017-02-26T07:35:24.053Z,99.99
2017-02-26T07:36:38.468Z,99.99
2017-02-26T07:37:52.876Z,99.99
2017-02-26T07:39:07.281Z,99.99
2017-02-26T07:40:21.734Z,99.99
2017-02-26T07:41:36.133Z,99.99
2017-02-26T07:42:49.241Z,99.99
2017-02-26T07:44:03.625Z,99.99
2017-02-26T07:45:17.354Z,99.99
2017-02-26T07:46:31.130Z,99.99
2017-02-26T07:47:45.488Z,99.99
2017-02-26T07:48:59.953Z,99.99
2017-02-26T07:50:14.352Z,99.99
2017-02-26T07:51:28.072Z,99.99
2017-02-26T07:52:42.448Z,99.99
2017-02-26T07:53:56.826Z,99.99
2017-02-26T07:55:11.239Z,99.99
2017-02-26T07:56:25.646Z,99.99
2017-02-26T07:57:40.025Z,99.99
2017-02-26T07:58:53.756Z,99.99
2017-02-26T08:00:08.197Z,99.99
2017-02-26T08:01:22.640Z,99.99
2017-02-26T08:02:36.402Z,99.99
2017-02-26T08:03:50.779Z,99.99
2017-02-26T08:05:05.157Z,99.99
2017-02-26T08:06:19.522Z,99.99
2017-02-26T08:07:33.930Z,99.99
2017-02-26T08:08:48.338Z,99.99
2017-02-26T08:10:02.749Z,99.99
2017-02-26T08:11:16.547Z,99.99
2017-02-26T08:12:30.977Z,99.99
2017-02-26T08:13:45.336Z,99.99
2017-02-26T08:14:59.686Z,99.99
2017-02-26T08:16:14.039Z,99.99
2017-02-26T08:17:28.488Z,99.99
2017-02-26T08:18:42.859Z,99.99
2017-02-26T08:19:57.215Z,99.99
2017-02-26T08:21:11.631Z,99.99
2017-02-26T08:22:26.002Z,99.99
2017-02-26T08:23:40.403Z,99.99
2017-02-26T08:24:54.123Z,99.99
2017-02-26T08:26:07.916Z,99.99
2017-02-26T08:27:21.615Z,99.99
2017-02-26T08:28:35.386Z,99.99
2017-02-26T08:29:49.810Z,99.99
2017-02-26T08:31:04.219Z,99.99
2017-02-26T08:32:18.635Z,99.99
2017-02-26T08:33:33.044Z,99.99
2017-02-26T08:34:46.139Z,99.99
2017-02-26T08:36:00.538Z,99.99
2017-02-26T08:37:14.890Z,99.99
2017-02-26T08:38:29.282Z,99.99
2017-02-26T08:39:43.668Z,99.99
2017-02-26T08:40:57.417Z,99.99
2017-02-26T08:42:11.796Z,99.99
2017-02-26T08:43:26.182Z,99.99
2017-02-26T08:44:39.950Z,99.99
2017-02-26T08:45:54.430Z,99.99
2017-02-26T08:47:08.842Z,99.99
2017-02-26T08:48:23.187Z,99.99
2017-02-26T08:49:36.955Z,99.99
2017-02-26T08:50:51.387Z,99.99
2017-02-26T08:52:05.774Z,99.99
2017-02-26T08:53:20.219Z,99.99
2017-02-26T08:54:33.929Z,99.99
2017-02-26T08:55:48.304Z,99.99
2017-02-26T08:57:02.729Z,99.99
2017-02-26T08:58:17.129Z,99.99
2017-02-26T08:59:30.865Z,99.99
2017-02-26T09:00:45.278Z,99.99
2017-02-26T09:01:59.033Z,99.99
2017-02-26T09:03:12.803Z,99.99
2017-02-26T09:04:27.191Z,99.99
2017-02-26T09:05:41.591Z,99.99
2017-02-26T09:06:55.325Z,99.99
2017-02-26T09:08:09.747Z,99.99
2017-02-26T09:09:24.150Z,99.99
2017-02-26T09:10:38.521Z,99.99
2017-02-26T09:11:52.264Z,99.99
2017-02-26T09:13:06.707Z,99.99
2017-02-26T09:14:21.119Z,99.99
2017-02-26T09:15:35.510Z,99.99
2017-02-26T09:16:49.912Z,99.99
2017-02-26T09:18:04.325Z,99.99
2017-02-26T09:19:18.723Z,99.99
2017-02-26T09:20:33.112Z,99.99
2017-02-26T09:21:47.494Z,99.99
2017-02-26T09:23:01.883Z,99.99
2017-02-26T09:24:16.266Z,99.99
2017-02-26T09:25:30.672Z,99.99
2017-02-26T09:26:44.429Z,99.99
2017-02-26T09:27:58.801Z,99.99
2017-02-26T09:29:12.546Z,99.99
2017-02-26T09:30:26.968Z,99.99
2017-02-26T09:31:40.746Z,99.99
2017-02-26T09:32:54.513Z,99.99
2017-02-26T09:34:08.884Z,99.99
2017-02-26T09:35:23.324Z,99.99
2017-02-26T09:36:37.060Z,99.99
2017-02-26T09:37:50.817Z,99.99
2017-02-26T09:39:04.619Z,99.99
2017-02-26T09:40:18.362Z,99.99
2017-02-26T09:41:32.781Z,99.99
2017-02-26T09:42:47.235Z,99.99
2017-02-26T09:44:01.617Z,99.99
2017-02-26T09:45:16.077Z,99.99
2017-02-26T09:46:30.440Z,99.99
2017-02-26T09:47:44.225Z,99.99
2017-02-26T09:48:58.615Z,99.99
2017-02-26T09:50:13.060Z,99.99
2017-02-26T09:51:27.444Z,99.99
2017-02-26T09:52:41.806Z,99.99
2017-02-26T09:53:55.578Z,99.99
2017-02-26T09:55:10.023Z,99.99
2017-02-26T09:56:24.420Z,99.99
2017-02-26T09:57:37.523Z,99.69
2017-02-26T09:58:51.898Z,99.35
2017-02-26T10:00:05.648Z,99.26
2017-02-26T10:01:19.431Z,99.16
2017-02-26T10:02:33.240Z,99.35
2017-02-26T10:03:46.985Z,99.16
2017-02-26T10:05:01.404Z,99.3
2017-02-26T10:06:15.786Z,98.92
2017-02-26T10:07:29.545Z,99.79
2017-02-26T10:08:43.969Z,99.69
2017-02-26T10:09:58.350Z,98.72
2017-02-26T10:11:12.142Z,99.5
2017-02-26T10:12:26.541Z,99.21
2017-02-26T10:13:40.922Z,97.52
2017-02-26T10:14:54.670Z,97.24
2017-02-26T10:16:09.170Z,96.27
2017-02-26T10:17:22.967Z,97.62
2017-02-26T10:18:37.368Z,95.69
2017-02-26T10:19:51.770Z,94.68
2017-02-26T10:21:06.150Z,94.68
2017-02-26T10:22:20.618Z,94.48
2017-02-26T10:23:33.707Z,94.29
2017-02-26T10:24:48.122Z,94.05
2017-02-26T10:26:00.596Z,94.1
2017-02-26T10:27:14.816Z,90.14
2017-02-26T10:28:28.616Z,90.14
2017-02-26T10:29:43.014Z,89.27
2017-02-26T10:30:57.450Z,89.17
2017-02-26T10:32:11.841Z,90.23
2017-02-26T10:33:26.211Z,91.78
2017-02-26T10:34:39.991Z,90.67
2017-02-26T10:35:53.796Z,88.69
2017-02-26T10:37:08.233Z,85.45
2017-02-26T10:38:22.647Z,85.69
2017-02-26T10:39:37.048Z,83.12
2017-02-26T10:40:50.784Z,79.97
2017-02-26T10:42:04.549Z,80.98
2017-02-26T10:43:18.269Z,82.2
2017-02-26T10:44:32.675Z,83.41
2017-02-26T10:45:46.437Z,84.53
2017-02-26T10:47:00.838Z,84.63
2017-02-26T10:48:15.251Z,85.3
2017-02-26T10:49:29.655Z,84.05
2017-02-26T10:50:44.095Z,82.4
2017-02-26T10:51:57.879Z,79.87
2017-02-26T10:53:11.637Z,76.08
2017-02-26T10:54:25.427Z,76.02
2017-02-26T10:55:39.815Z,74.7
2017-02-26T10:56:54.216Z,72.89
2017-02-26T10:58:08.640Z,71.86
2017-02-26T10:59:23.005Z,69.28
2017-02-26T11:00:36.742Z,66.53
2017-02-26T11:01:51.167Z,65.98
2017-02-26T11:03:05.552Z,67.5
2017-02-26T11:04:19.927Z,67.11
2017-02-26T11:05:34.326Z,69.22
2017-02-26T11:06:48.058Z,68.6
2017-02-26T11:08:02.446Z,72.74
2017-02-26T11:09:16.219Z,75.44
2017-02-26T11:10:30.641Z,75.5
2017-02-26T11:11:44.448Z,77.92
2017-02-26T11:12:58.217Z,77.01
2017-02-26T11:14:12.629Z,77.4
2017-02-26T11:15:27.025Z,77.69
2017-02-26T11:16:40.790Z,77.4
2017-02-26T11:17:55.203Z,77.11
2017-02-26T11:19:08.984Z,76.28
2017-02-26T11:20:23.425Z,74.63
2017-02-26T11:21:37.172Z,74.38
2017-02-26T11:22:50.946Z,73.83
2017-02-26T11:24:04.118Z,73.64
2017-02-26T11:25:18.534Z,74.08
2017-02-26T11:26:32.957Z,74.73
2017-02-26T11:27:47.361Z,75.7
2017-02-26T11:29:01.738Z,77.92
2017-02-26T11:30:16.191Z,78.36
2017-02-26T11:31:30.650Z,78.23
2017-02-26T11:32:44.429Z,78.67
2017-02-26T11:33:58.835Z,78.48
2017-02-26T11:35:13.269Z,79.54
2017-02-26T11:36:26.366Z,80.61
2017-02-26T11:37:40.765Z,79.64
2017-02-26T11:38:54.514Z,79
2017-02-26T11:40:08.901Z,78.61
2017-02-26T11:41:22.671Z,78.42
2017-02-26T11:42:37.090Z,78.36
2017-02-26T11:43:51.482Z,77.84
2017-02-26T11:45:05.247Z,79.58
2017-02-26T11:46:19.657Z,77.36
2017-02-26T11:47:34.042Z,78.36
2017-02-26T11:48:47.780Z,78.36
2017-02-26T11:50:02.172Z,76.72
2017-02-26T11:51:15.921Z,77.78
2017-02-26T11:52:29.663Z,78.33
2017-02-26T11:53:44.054Z,78.58
2017-02-26T11:54:58.465Z,78.42
2017-02-26T11:56:12.863Z,79.16
2017-02-26T11:57:27.331Z,78.67
2017-02-26T11:58:41.805Z,78.48
2017-02-26T11:59:56.218Z,77.07
2017-02-26T12:01:10.628Z,77.17
2017-02-26T12:02:25.052Z,78.03
2017-02-26T12:03:38.814Z,76.97
2017-02-26T12:04:51.901Z,76.24
2017-02-26T12:06:06.361Z,75.65
2017-02-26T12:07:20.813Z,76.82
2017-02-26T12:08:35.245Z,74.3
2017-02-26T12:09:49.626Z,73.57
2017-02-26T12:11:03.395Z,74.24
2017-02-26T12:12:17.119Z,73.6
2017-02-26T12:13:31.510Z,73.08
2017-02-26T12:14:45.894Z,72.92
2017-02-26T12:16:00.286Z,72.44
2017-02-26T12:17:14.738Z,71.76
2017-02-26T12:18:28.521Z,71.5
2017-02-26T12:19:42.288Z,71.54
2017-02-26T12:20:56.715Z,70.96
2017-02-26T12:22:10.436Z,72.89
2017-02-26T12:23:24.199Z,72.67
2017-02-26T12:24:38.602Z,73.05
2017-02-26T12:25:53.021Z,73.15
2017-02-26T12:27:07.398Z,74.82
2017-02-26T12:28:21.783Z,73.99
2017-02-26T12:29:36.262Z,72.47
2017-02-26T12:30:50.688Z,71.8
2017-02-26T12:32:04.450Z,68.54
2017-02-26T12:33:18.855Z,66.76
2017-02-26T12:34:32.634Z,65.5
2017-02-26T12:35:47.028Z,65.05
2017-02-26T12:37:01.402Z,64.59
2017-02-26T12:38:15.801Z,65.82
2017-02-26T12:39:30.231Z,66.08
2017-02-26T12:40:43.969Z,67.79
2017-02-26T12:41:57.722Z,68.44
2017-02-26T12:43:12.123Z,69.99
2017-02-26T12:44:26.545Z,70.92
2017-02-26T12:45:40.955Z,70.7
2017-02-26T12:46:55.347Z,71.95
2017-02-26T12:48:09.745Z,70.34
2017-02-26T12:49:24.129Z,69.6
2017-02-26T12:50:37.258Z,68.92
2017-02-26T12:51:51.663Z,70.57
2017-02-26T12:53:06.090Z,71.12
2017-02-26T12:54:19.862Z,72.05
2017-02-26T12:55:34.333Z,72.63
2017-02-26T12:56:48.808Z,71.22
2017-02-26T12:58:03.223Z,69.89
2017-02-26T12:59:17.642Z,69.02
2017-02-26T13:00:32.045Z,65.75
2017-02-26T13:01:46.452Z,64.33
2017-02-26T13:03:00.851Z,65.05
2017-02-26T13:04:15.212Z,68.18
2017-02-26T13:05:29.632Z,67.85
2017-02-26T13:06:43.411Z,67.85
2017-02-26T13:07:57.825Z,68.15
2017-02-26T13:09:12.237Z,68.54
2017-02-26T13:10:26.632Z,64.3
2017-02-26T13:11:41.044Z,64.72
2017-02-26T13:12:55.459Z,63.78
2017-02-26T13:14:09.857Z,62.84
2017-02-26T13:15:23.651Z,64.2
2017-02-26T13:16:37.449Z,61.87
2017-02-26T13:17:51.843Z,62.65
2017-02-26T13:19:05.624Z,64.62
2017-02-26T13:20:20.072Z,63.82
2017-02-26T13:21:33.174Z,63.43
2017-02-26T13:22:46.317Z,62.59
2017-02-26T13:24:00.732Z,60.68
2017-02-26T13:25:14.500Z,59.18
2017-02-26T13:26:28.904Z,59.99
2017-02-26T13:27:42.678Z,58.92
2017-02-26T13:28:57.090Z,58.85
2017-02-26T13:30:11.471Z,58.59
2017-02-26T13:31:25.908Z,58.46
2017-02-26T13:32:39.670Z,58.39
2017-02-26T13:33:54.098Z,60.79
2017-02-26T13:35:07.878Z,62.38
2017-02-26T13:36:22.247Z,64.01
2017-02-26T13:37:36.057Z,65.4
2017-02-26T13:38:50.471Z,65.47
2017-02-26T13:40:04.868Z,65.37
2017-02-26T13:41:19.256Z,65.5
2017-02-26T13:42:33.027Z,64.92
2017-02-26T13:43:47.423Z,65.2
2017-02-26T13:45:01.847Z,63.95
2017-02-26T13:46:14.956Z,64.46
2017-02-26T13:47:29.342Z,65.72
2017-02-26T13:48:43.087Z,64.72
2017-02-26T13:49:57.485Z,65.2
2017-02-26T13:51:11.948Z,65.69
2017-02-26T13:52:26.374Z,65.11
2017-02-26T13:53:40.133Z,65.4
2017-02-26T13:54:54.924Z,65.89
2017-02-26T13:56:09.136Z,65.01
2017-02-26T13:57:22.897Z,63.65
2017-02-26T13:58:37.325Z,61.48
2017-02-26T13:59:51.039Z,59.82
2017-02-26T14:01:05.422Z,58.78
2017-02-26T14:02:19.819Z,56.89
2017-02-26T14:03:34.241Z,56.33
2017-02-26T14:04:48.027Z,56.62
2017-02-26T14:06:02.401Z,57.7
2017-02-26T14:07:16.141Z,57.37
2017-02-26T14:08:29.925Z,59.78
2017-02-26T14:09:44.307Z,61.47
2017-02-26T14:10:58.721Z,62.81
2017-02-26T14:12:13.207Z,62.68
2017-02-26T14:13:27.655Z,63.13
2017-02-26T14:14:41.405Z,62.74
2017-02-26T14:15:56.079Z,62.58
2017-02-26T14:17:09.866Z,60.77
2017-02-26T14:18:24.270Z,60.21
2017-02-26T14:19:38.684Z,62.03
2017-02-26T14:20:53.118Z,63.32
2017-02-26T14:22:06.877Z,64.95
2017-02-26T14:23:20.657Z,65.69
2017-02-26T14:24:35.069Z,65.01
2017-02-26T14:25:49.546Z,65.3
2017-02-26T14:27:03.963Z,67.21
2017-02-26T14:28:17.728Z,67.95
2017-02-26T14:29:32.180Z,69.37
2017-02-26T14:30:45.945Z,69.47
2017-02-26T14:32:00.321Z,70.05
2017-02-26T14:33:14.089Z,69.12
2017-02-26T14:34:28.496Z,68.24
2017-02-26T14:35:41.617Z,68.3
2017-02-26T14:36:56.054Z,70.25
2017-02-26T14:38:10.452Z,69.37
2017-02-26T14:39:24.884Z,70.73
2017-02-26T14:40:39.290Z,67.92
2017-02-26T14:41:53.077Z,69.85
2017-02-26T14:43:07.456Z,68.7
2017-02-26T14:44:21.899Z,69.47
2017-02-26T14:45:36.326Z,68.12
2017-02-26T14:46:50.762Z,68.12
2017-02-26T14:48:05.240Z,68.21
2017-02-26T14:49:19.619Z,66.5
2017-02-26T14:50:34.026Z,66.47
2017-02-26T14:51:48.383Z,64.36
2017-02-26T14:53:02.779Z,64.56
2017-02-26T14:54:17.221Z,63.78
2017-02-26T14:55:31.636Z,61.68
2017-02-26T14:56:46.050Z,61.51
2017-02-26T14:57:59.839Z,60.9
2017-02-26T14:59:14.199Z,59.95
2017-02-26T15:00:28.590Z,58.17
2017-02-26T15:01:43.010Z,58.1
2017-02-26T15:02:57.411Z,58.75
2017-02-26T15:04:11.818Z,58.59
2017-02-26T15:05:26.196Z,58.61
2017-02-26T15:06:40.619Z,60.46
2017-02-26T15:07:55.027Z,62.48
2017-02-26T15:09:08.801Z,63.78
2017-02-26T15:10:23.170Z,63.94
2017-02-26T15:11:37.555Z,63.84
2017-02-26T15:12:51.971Z,64.72
2017-02-26T15:14:05.124Z,63.32
2017-02-26T15:15:19.555Z,63.71
2017-02-26T15:16:32.692Z,63.42
2017-02-26T15:17:47.099Z,63.32
2017-02-26T15:19:01.503Z,63.04
2017-02-26T15:20:15.278Z,62.74
2017-02-26T15:21:29.703Z,63.62
2017-02-26T15:22:44.097Z,63.78
2017-02-26T15:23:58.512Z,64.82
2017-02-26T15:25:12.900Z,65.98
2017-02-26T15:26:27.323Z,66.24
2017-02-26T15:27:41.716Z,66.63
2017-02-26T15:28:55.456Z,68.47
2017-02-26T15:30:09.230Z,68.96
2017-02-26T15:31:23.701Z,67.21
2017-02-26T15:32:38.122Z,67.6
2017-02-26T15:33:51.863Z,67.31
2017-02-26T15:35:05.629Z,65.75
2017-02-26T15:36:20.076Z,65.56
2017-02-26T15:37:34.484Z,65.98
2017-02-26T15:38:48.877Z,65.4
2017-02-26T15:40:02.645Z,65.69
2017-02-26T15:41:15.766Z,65.79
2017-02-26T15:42:30.137Z,66.95
2017-02-26T15:43:44.548Z,66.56
2017-02-26T15:44:58.965Z,67.24
2017-02-26T15:46:12.794Z,66.63
2017-02-26T15:47:27.182Z,67.4
2017-02-26T15:48:40.973Z,65.95
2017-02-26T15:49:55.389Z,68.79
2017-02-26T15:51:09.183Z,69.18
2017-02-26T15:52:23.563Z,65.5
2017-02-26T15:53:37.931Z,64.72
2017-02-26T15:54:52.366Z,63.88
2017-02-26T15:56:06.748Z,61.58
2017-02-26T15:57:21.152Z,61.9
2017-02-26T15:58:34.917Z,61.51